createdAt,value
2023-04-29T00:01:38.391Z,96.20
2023-04-29T00:03:43.657Z,96.10
2023-04-29T00:05:48.884Z,96.20
2023-04-29T00:07:53.974Z,95.90
2023-04-29T00:09:58.981Z,96.00
2023-04-29T00:12:04.011Z,96.20
2023-04-29T00:14:09.106Z,96.10
2023-04-29T00:16:14.362Z,96.10
2023-04-29T00:18:22.195Z,96.10
2023-04-29T00:20:27.346Z,96.00
2023-04-29T00:22:32.742Z,95.90
2023-04-29T00:24:37.799Z,95.90
2023-04-29T00:26:43.955Z,95.70
2023-04-29T00:28:49.253Z,95.60
2023-04-29T00:30:54.350Z,95.30
2023-04-29T00:32:59.401Z,95.60
2023-04-29T00:35:07.892Z,95.70
2023-04-29T00:37:12.938Z,96.00
2023-04-29T00:39:18.455Z,95.90
2023-04-29T00:41:24.176Z,96.00
2023-04-29T00:43:29.577Z,95.80
2023-04-29T00:45:34.640Z,95.80
2023-04-29T00:47:40.064Z,96.10
2023-04-29T00:49:45.455Z,96.30
2023-04-29T00:51:53.421Z,96.20
2023-04-29T00:53:58.647Z,95.90
2023-04-29T00:56:04.855Z,96.00
2023-04-29T00:58:10.148Z,95.80
2023-04-29T01:00:16.761Z,95.90
2023-04-29T01:02:22.583Z,95.60
2023-04-29T01:04:29.565Z,95.60
2023-04-29T01:06:47.689Z,95.60
2023-04-29T01:09:11.318Z,95.50
2023-04-29T01:11:23.451Z,95.90
2023-04-29T01:13:45.271Z,95.80
2023-04-29T01:15:59.036Z,95.90
2023-04-29T01:18:13.354Z,96.20
2023-04-29T01:20:19.011Z,96.10
2023-04-29T01:22:24.088Z,96.10
2023-04-29T01:24:31.873Z,96.20
2023-04-29T01:26:37.833Z,96.30
2023-04-29T01:28:57.222Z,96.10
2023-04-29T01:31:09.902Z,95.80
2023-04-29T01:33:26.162Z,96.00
2023-04-29T01:35:49.575Z,96.00
2023-04-29T01:38:04.322Z,95.90
2023-04-29T01:40:19.228Z,95.80
2023-04-29T01:42:42.902Z,95.50
2023-04-29T01:44:54.030Z,95.50
2023-04-29T01:47:04.042Z,95.50
2023-04-29T01:49:16.447Z,95.60
2023-04-29T01:51:21.982Z,95.50
2023-04-29T01:53:27.428Z,95.80
2023-04-29T01:55:35.109Z,95.60
2023-04-29T01:57:58.235Z,95.70
2023-04-29T02:00:22.545Z,95.80
2023-04-29T02:02:30.644Z,95.90
2023-04-29T02:04:46.304Z,95.90
2023-04-29T02:06:52.441Z,95.80
2023-04-29T02:08:57.487Z,95.70
2023-04-29T02:11:05.143Z,95.50
2023-04-29T02:13:15.573Z,95.70
2023-04-29T02:15:21.609Z,95.70
2023-04-29T02:17:26.941Z,95.70
2023-04-29T02:19:32.043Z,95.60
2023-04-29T02:21:40.105Z,95.60
2023-04-29T02:23:45.201Z,95.40
2023-04-29T02:25:50.476Z,95.30
2023-04-29T02:27:58.157Z,95.30
2023-04-29T02:30:04.983Z,95.40
2023-04-29T02:32:10.224Z,95.30
2023-04-29T02:34:16.597Z,95.30
2023-04-29T02:36:21.685Z,95.30
2023-04-29T02:38:29.267Z,95.40
2023-04-29T02:40:34.284Z,95.50
2023-04-29T02:42:39.320Z,95.40
2023-04-29T02:44:46.945Z,95.30
2023-04-29T02:46:52.040Z,95.20
2023-04-29T02:48:57.253Z,95.20
2023-04-29T02:51:02.353Z,95.30
2023-04-29T02:53:10.474Z,95.20
2023-04-29T02:55:15.628Z,95.20
2023-04-29T02:57:21.210Z,95.30
2023-04-29T02:59:26.643Z,95.20
2023-04-29T03:01:34.529Z,95.10
2023-04-29T03:03:40.412Z,94.90
2023-04-29T03:05:46.041Z,95.00
2023-04-29T03:07:51.542Z,95.20
2023-04-29T03:09:57.049Z,95.30
2023-04-29T03:12:03.110Z,95.30
2023-04-29T03:14:08.787Z,95.20
2023-04-29T03:16:14.421Z,95.20
2023-04-29T03:18:22.234Z,95.10
2023-04-29T03:20:27.489Z,95.20
2023-04-29T03:22:32.688Z,95.40
2023-04-29T03:24:37.946Z,95.40
2023-04-29T03:26:43.349Z,95.10
2023-04-29T03:28:50.481Z,95.10
2023-04-29T03:30:56.955Z,95.10
2023-04-29T03:33:02.548Z,95.00
2023-04-29T03:35:15.570Z,95.20
2023-04-29T03:37:34.243Z,95.10
2023-04-29T03:39:52.985Z,94.80
2023-04-29T03:41:58.488Z,94.70
2023-04-29T03:44:03.843Z,94.60
2023-04-29T03:46:09.311Z,94.90
2023-04-29T03:48:14.912Z,95.10
2023-04-29T03:50:22.818Z,95.20
2023-04-29T03:52:28.801Z,95.00
2023-04-29T03:54:40.002Z,94.90
2023-04-29T03:56:45.276Z,95.00
2023-04-29T03:58:51.528Z,95.00
2023-04-29T04:00:58.483Z,94.80
2023-04-29T04:03:12.271Z,94.70
2023-04-29T04:05:19.685Z,94.40
2023-04-29T04:07:31.805Z,94.40
2023-04-29T04:10:14.925Z,94.40
2023-04-29T04:12:20.113Z,94.50
2023-04-29T04:14:25.591Z,94.20
2023-04-29T04:16:30.714Z,94.20
2023-04-29T04:18:35.913Z,94.20
2023-04-29T04:20:41.318Z,94.20
2023-04-29T04:22:50.956Z,94.30
2023-04-29T04:25:00.936Z,94.30
2023-04-29T04:27:06.094Z,94.10
2023-04-29T04:29:15.592Z,94.10
2023-04-29T04:31:53.076Z,93.80
2023-04-29T04:34:00.009Z,93.90
2023-04-29T04:36:07.432Z,94.10
2023-04-29T04:38:15.633Z,94.30
2023-04-29T04:40:21.091Z,94.20
2023-04-29T04:42:46.115Z,94.60
2023-04-29T04:44:53.209Z,94.40
2023-04-29T04:47:09.600Z,94.10
2023-04-29T04:49:27.622Z,94.10
2023-04-29T04:51:33.197Z,93.60
2023-04-29T04:53:42.220Z,94.40
2023-04-29T04:55:55.998Z,94.60
2023-04-29T04:58:02.520Z,94.80
2023-04-29T05:00:09.803Z,94.70
2023-04-29T05:02:14.956Z,94.60
2023-04-29T05:04:20.179Z,94.70
2023-04-29T05:06:25.793Z,94.20
2023-04-29T05:08:30.898Z,94.30
2023-04-29T05:10:44.690Z,94.00
2023-04-29T05:12:50.649Z,93.80
2023-04-29T05:14:57.532Z,93.80
2023-04-29T05:17:06.740Z,92.60
2023-04-29T05:19:12.069Z,92.50
2023-04-29T05:21:18.918Z,92.30
2023-04-29T05:23:25.449Z,92.50
2023-04-29T05:25:30.540Z,92.50
2023-04-29T05:27:38.661Z,91.30
2023-04-29T05:29:47.473Z,91.50
2023-04-29T05:31:52.818Z,91.60
2023-04-29T05:33:58.138Z,90.30
2023-04-29T05:36:03.743Z,91.10
2023-04-29T05:38:11.057Z,89.80
2023-04-29T05:40:19.453Z,90.30
2023-04-29T05:42:25.358Z,89.50
2023-04-29T05:44:33.007Z,90.50
2023-04-29T05:46:38.452Z,89.10
2023-04-29T05:48:43.505Z,89.50
2023-04-29T05:50:50.378Z,90.10
2023-04-29T05:52:56.937Z,89.10
2023-04-29T05:55:03.404Z,88.60
2023-04-29T05:57:08.724Z,89.10
2023-04-29T05:59:13.744Z,89.40
2023-04-29T06:01:22.504Z,88.90
2023-04-29T06:03:28.071Z,89.30
2023-04-29T06:05:50.423Z,88.60
2023-04-29T06:08:11.081Z,88.50
2023-04-29T06:10:28.904Z,88.50
2023-04-29T06:12:34.667Z,88.90
2023-04-29T06:14:39.743Z,88.20
2023-04-29T06:16:47.533Z,87.50
2023-04-29T06:18:52.579Z,87.30
2023-04-29T06:20:57.589Z,86.70
2023-04-29T06:23:02.818Z,87.60
2023-04-29T06:25:08.823Z,87.20
2023-04-29T06:27:25.198Z,86.20
2023-04-29T06:29:30.822Z,87.20
2023-04-29T06:31:35.924Z,86.20
2023-04-29T06:33:45.630Z,86.50
2023-04-29T06:35:50.975Z,86.70
2023-04-29T06:38:11.520Z,86.60
2023-04-29T06:40:34.872Z,86.30
2023-04-29T06:42:46.810Z,85.60
2023-04-29T06:45:11.791Z,86.00
2023-04-29T06:47:20.289Z,85.60
2023-04-29T06:49:53.130Z,85.70
2023-04-29T06:52:02.289Z,85.10
2023-04-29T06:54:07.843Z,85.60
2023-04-29T06:58:19.026Z,85.00
2023-04-29T07:00:24.301Z,84.40
2023-04-29T07:02:33.228Z,84.50
2023-04-29T07:04:38.757Z,85.00
2023-04-29T07:06:47.372Z,85.80
2023-04-29T07:08:54.783Z,84.10
2023-04-29T07:11:01.926Z,83.00
2023-04-29T07:13:07.585Z,83.20
2023-04-29T07:15:13.625Z,83.40
2023-04-29T07:17:18.989Z,83.40
2023-04-29T07:19:25.462Z,83.30
2023-04-29T07:21:31.434Z,83.70
2023-04-29T07:23:39.154Z,83.70
2023-04-29T07:25:44.736Z,82.90
2023-04-29T07:27:49.774Z,82.80
2023-04-29T07:29:54.829Z,82.80
2023-04-29T07:32:00.100Z,81.60
2023-04-29T07:34:06.201Z,83.10
2023-04-29T07:36:11.624Z,83.00
2023-04-29T07:38:16.637Z,83.20
2023-04-29T07:40:24.827Z,83.20
2023-04-29T07:42:34.661Z,82.80
2023-04-29T07:44:40.108Z,82.80
2023-04-29T07:46:45.291Z,83.20
2023-04-29T07:48:50.802Z,83.00
2023-04-29T07:50:55.898Z,83.90
2023-04-29T07:53:02.281Z,83.90
2023-04-29T07:55:08.683Z,82.30
2023-04-29T07:57:16.517Z,83.20
2023-04-29T07:59:21.548Z,82.90
2023-04-29T08:01:27.249Z,83.60
2023-04-29T08:03:32.868Z,83.20
2023-04-29T08:05:39.434Z,83.50
2023-04-29T08:07:44.572Z,82.70
2023-04-29T08:09:49.608Z,83.00
2023-04-29T08:11:55.167Z,83.50
2023-04-29T08:14:02.877Z,83.00
2023-04-29T08:16:09.721Z,83.30
2023-04-29T08:18:14.856Z,83.00
2023-04-29T08:20:20.051Z,82.60
2023-04-29T08:22:25.581Z,82.20
2023-04-29T08:24:31.193Z,82.80
2023-04-29T08:26:36.846Z,82.60
2023-04-29T08:28:41.996Z,83.50
2023-04-29T08:30:49.937Z,82.20
2023-04-29T08:32:55.022Z,82.20
2023-04-29T08:35:00.107Z,81.70
2023-04-29T08:37:06.062Z,82.20
2023-04-29T08:39:11.102Z,81.90
2023-04-29T08:41:17.001Z,81.40
2023-04-29T08:43:23.213Z,82.60
2023-04-29T08:45:31.931Z,81.00
2023-04-29T08:47:40.852Z,82.70
2023-04-29T08:49:46.073Z,82.10
2023-04-29T08:51:53.438Z,82.20
2023-04-29T08:53:59.755Z,81.40
2023-04-29T08:56:22.208Z,83.00
2023-04-29T08:58:31.038Z,81.20
2023-04-29T09:00:37.368Z,80.50
2023-04-29T09:02:53.154Z,80.40
2023-04-29T09:05:07.690Z,80.40
2023-04-29T09:07:15.273Z,80.20
2023-04-29T09:09:21.308Z,81.00
2023-04-29T09:11:26.553Z,79.40
2023-04-29T09:13:34.090Z,80.60
2023-04-29T09:15:41.558Z,79.60
2023-04-29T09:17:51.829Z,79.20
2023-04-29T09:19:57.277Z,79.90
2023-04-29T09:22:02.734Z,79.60
2023-04-29T09:24:08.666Z,80.80
2023-04-29T09:26:13.921Z,81.00
2023-04-29T09:28:19.562Z,81.60
2023-04-29T09:30:27.034Z,82.70
2023-04-29T09:32:32.092Z,82.70
2023-04-29T09:34:41.476Z,82.50
2023-04-29T09:36:48.650Z,83.00
2023-04-29T09:38:58.315Z,82.90
2023-04-29T09:41:12.235Z,83.50
2023-04-29T09:43:19.159Z,83.80
2023-04-29T09:45:37.764Z,83.60
2023-04-29T09:47:42.966Z,83.70
2023-04-29T09:49:50.589Z,84.30
2023-04-29T09:51:57.563Z,83.90
2023-04-29T09:54:04.437Z,83.70
2023-04-29T09:56:10.113Z,83.90
2023-04-29T09:58:37.303Z,83.00
2023-04-29T10:00:43.343Z,83.10
2023-04-29T10:02:51.230Z,83.80
2023-04-29T10:05:00.989Z,82.30
2023-04-29T10:07:06.789Z,81.60
2023-04-29T10:09:16.225Z,81.20
2023-04-29T10:11:22.053Z,80.80
2023-04-29T10:13:28.517Z,79.60
2023-04-29T10:15:43.320Z,79.40
2023-04-29T10:17:52.362Z,79.00
2023-04-29T10:20:06.435Z,78.30
2023-04-29T10:22:15.880Z,80.30
2023-04-29T10:24:22.104Z,80.00
2023-04-29T10:26:32.433Z,80.80
2023-04-29T10:28:40.358Z,80.90
2023-04-29T10:30:48.274Z,80.70
2023-04-29T10:32:54.882Z,80.40
2023-04-29T10:35:03.985Z,80.50
2023-04-29T10:37:09.823Z,80.70
2023-04-29T10:39:26.913Z,79.90
2023-04-29T10:41:48.021Z,80.30
2023-04-29T10:43:53.554Z,77.80
2023-04-29T10:46:30.926Z,78.20
2023-04-29T10:48:35.972Z,77.20
2023-04-29T10:51:05.712Z,76.70
2023-04-29T10:53:11.217Z,78.40
2023-04-29T10:55:16.205Z,77.30
2023-04-29T10:57:25.107Z,77.60
2023-04-29T10:59:48.347Z,78.50
2023-04-29T11:01:55.808Z,79.70
2023-04-29T11:04:05.512Z,76.80
2023-04-29T11:06:15.030Z,76.40
2023-04-29T11:08:26.708Z,75.10
2023-04-29T11:10:39.792Z,73.80
2023-04-29T11:12:45.484Z,74.40
2023-04-29T11:14:55.807Z,74.10
2023-04-29T11:17:04.674Z,71.20
2023-04-29T11:19:12.509Z,74.20
2023-04-29T11:21:20.405Z,74.30
2023-04-29T11:23:28.590Z,72.50
2023-04-29T11:25:33.880Z,72.20
2023-04-29T11:27:42.829Z,69.70
2023-04-29T11:29:49.430Z,71.70
2023-04-29T11:32:02.904Z,68.20
2023-04-29T11:34:08.931Z,69.80
2023-04-29T11:36:15.375Z,70.50
2023-04-29T11:38:27.562Z,68.40
2023-04-29T11:40:32.578Z,74.10
2023-04-29T11:42:39.099Z,69.60
2023-04-29T11:44:44.104Z,70.10
2023-04-29T11:46:49.828Z,71.60
2023-04-29T11:48:55.393Z,71.10
2023-04-29T11:51:02.716Z,73.40
2023-04-29T11:53:07.968Z,71.30
2023-04-29T11:55:16.334Z,73.30
2023-04-29T11:57:21.435Z,72.30
2023-04-29T11:59:27.193Z,74.00
2023-04-29T12:01:32.322Z,73.40
2023-04-29T12:03:37.876Z,73.90
2023-04-29T12:05:43.162Z,75.80
2023-04-29T12:07:48.231Z,74.20
2023-04-29T12:09:53.860Z,74.80
2023-04-29T12:12:01.779Z,75.10
2023-04-29T12:14:08.351Z,73.40
2023-04-29T12:16:14.106Z,73.80
2023-04-29T12:18:23.659Z,72.40
2023-04-29T12:20:29.535Z,74.20
2023-04-29T12:22:35.261Z,74.80
2023-04-29T12:24:42.136Z,73.50
2023-04-29T12:26:49.559Z,75.20
2023-04-29T12:29:01.943Z,75.00
2023-04-29T12:31:07.155Z,75.20
2023-04-29T12:33:12.628Z,76.10
2023-04-29T12:35:19.423Z,76.40
2023-04-29T12:37:26.156Z,77.10
2023-04-29T12:39:33.879Z,76.60
2023-04-29T12:41:44.348Z,75.60
2023-04-29T12:43:49.425Z,76.60
2023-04-29T12:45:58.961Z,77.90
2023-04-29T12:48:08.988Z,76.40
2023-04-29T12:50:20.496Z,76.70
2023-04-29T12:52:25.532Z,74.70
2023-04-29T12:54:30.843Z,75.00
2023-04-29T12:56:36.228Z,74.30
2023-04-29T12:58:42.092Z,75.00
2023-04-29T13:00:47.227Z,71.70
2023-04-29T13:02:55.324Z,72.20
2023-04-29T13:05:01.322Z,72.10
2023-04-29T13:07:07.035Z,72.50
2023-04-29T13:09:18.639Z,69.50
2023-04-29T13:11:24.692Z,70.10
2023-04-29T13:13:29.904Z,68.40
2023-04-29T13:15:36.202Z,69.00
2023-04-29T13:17:41.762Z,69.00
2023-04-29T13:19:51.823Z,69.70
2023-04-29T13:21:57.184Z,70.90
2023-04-29T13:24:02.198Z,70.60
2023-04-29T13:26:09.043Z,71.60
2023-04-29T13:28:14.685Z,74.10
2023-04-29T13:30:20.201Z,75.10
2023-04-29T13:32:25.876Z,77.50
2023-04-29T13:34:30.937Z,77.90
2023-04-29T13:36:38.815Z,79.00
2023-04-29T13:38:44.910Z,79.60
2023-04-29T13:40:51.638Z,80.50
2023-04-29T13:43:05.033Z,80.90
2023-04-29T13:45:15.542Z,80.60
2023-04-29T13:47:26.243Z,80.70
2023-04-29T13:49:55.990Z,81.90
2023-04-29T13:52:30.580Z,81.50
2023-04-29T13:59:30.669Z,80.90
2023-04-29T14:01:26.075Z,80.10
2023-04-29T14:03:35.590Z,79.20
2023-04-29T14:05:42.003Z,80.50
2023-04-29T14:07:49.689Z,79.90
2023-04-29T14:09:54.725Z,78.20
2023-04-29T14:11:59.977Z,78.50
2023-04-29T14:14:05.026Z,77.90
2023-04-29T14:16:11.797Z,78.40
2023-04-29T14:18:16.860Z,79.40
2023-04-29T14:20:22.142Z,77.40
2023-04-29T14:22:27.558Z,76.90
2023-04-29T14:24:35.166Z,77.60
2023-04-29T14:26:40.239Z,77.80
2023-04-29T14:28:45.339Z,77.00
2023-04-29T14:30:50.432Z,77.60
2023-04-29T14:32:55.454Z,77.00
2023-04-29T14:35:00.965Z,76.70
2023-04-29T14:37:06.024Z,78.40
2023-04-29T14:39:11.225Z,77.10
2023-04-29T14:41:18.877Z,76.40
2023-04-29T14:43:24.235Z,76.50
2023-04-29T14:45:29.273Z,76.30
2023-04-29T14:47:34.666Z,75.30
2023-04-29T14:49:39.731Z,75.40
2023-04-29T14:51:44.771Z,75.60
2023-04-29T14:53:49.963Z,75.80
2023-04-29T14:55:55.561Z,74.20
2023-04-29T14:58:05.351Z,74.70
2023-04-29T15:00:12.727Z,73.90
2023-04-29T15:02:18.089Z,74.30
2023-04-29T15:04:23.133Z,73.10
2023-04-29T15:06:28.745Z,72.90
2023-04-29T15:08:34.458Z,71.20
2023-04-29T15:10:39.549Z,70.90
2023-04-29T15:12:45.109Z,71.30
2023-04-29T15:14:53.698Z,71.80
2023-04-29T15:16:58.932Z,72.20
2023-04-29T15:19:04.365Z,71.30
2023-04-29T15:21:09.669Z,71.00
2023-04-29T15:23:15.258Z,71.70
2023-04-29T15:25:21.197Z,71.70
2023-04-29T15:27:26.879Z,71.60
2023-04-29T15:29:32.806Z,71.60
2023-04-29T15:31:41.285Z,72.10
2023-04-29T15:33:46.677Z,71.90
2023-04-29T15:35:51.746Z,73.70
2023-04-29T15:37:57.617Z,72.80
2023-04-29T15:40:04.441Z,73.10
2023-04-29T15:42:09.638Z,75.20
2023-04-29T15:44:15.095Z,74.20
2023-04-29T15:46:20.306Z,75.90
2023-04-29T15:48:28.399Z,75.00
2023-04-29T15:50:33.420Z,75.60
2023-04-29T15:52:38.862Z,76.30
2023-04-29T15:54:43.894Z,75.20
2023-04-29T15:56:49.100Z,75.80
2023-04-29T15:58:54.897Z,75.10
2023-04-29T16:01:00.336Z,75.00
2023-04-29T16:03:06.133Z,75.00
2023-04-29T16:05:14.069Z,74.60
2023-04-29T16:07:20.608Z,75.10
2023-04-29T16:09:26.119Z,75.50
2023-04-29T16:11:31.129Z,75.60
2023-04-29T16:13:36.891Z,75.90
2023-04-29T16:15:41.967Z,75.70
2023-04-29T16:17:47.453Z,75.20
2023-04-29T16:19:52.708Z,76.50
2023-04-29T16:22:00.397Z,75.40
2023-04-29T16:24:06.250Z,76.10
2023-04-29T16:26:11.729Z,75.60
2023-04-29T16:28:17.775Z,76.20
2023-04-29T16:30:22.816Z,76.90
2023-04-29T16:32:28.932Z,77.10
2023-04-29T16:34:34.017Z,77.40
2023-04-29T16:36:39.519Z,76.30
2023-04-29T16:38:47.603Z,76.10
2023-04-29T16:40:52.705Z,75.10
2023-04-29T16:42:57.984Z,74.90
2023-04-29T16:45:04.228Z,74.40
2023-04-29T16:47:09.438Z,74.80
2023-04-29T16:49:14.971Z,74.90
2023-04-29T16:51:20.388Z,75.70
2023-04-29T16:53:25.520Z,75.70
2023-04-29T16:55:33.539Z,75.70
2023-04-29T16:57:38.598Z,75.90
2023-04-29T16:59:43.627Z,76.00
2023-04-29T17:01:48.800Z,76.30
2023-04-29T17:03:54.217Z,77.00
2023-04-29T17:05:59.269Z,77.70
2023-04-29T17:08:05.985Z,77.80
2023-04-29T17:10:12.458Z,77.80
2023-04-29T17:12:20.086Z,77.80
2023-04-29T17:14:25.496Z,78.20
2023-04-29T17:16:30.775Z,77.70
2023-04-29T17:18:36.111Z,77.90
2023-04-29T17:20:42.247Z,79.20
2023-04-29T17:22:47.745Z,78.60
2023-04-29T17:24:53.416Z,79.20
2023-04-29T17:26:59.659Z,78.30
2023-04-29T17:29:07.571Z,80.00
2023-04-29T17:31:12.639Z,78.90
2023-04-29T17:33:17.856Z,78.10
2023-04-29T17:35:23.187Z,78.10
2023-04-29T17:37:30.415Z,77.90
2023-04-29T17:39:36.455Z,77.50
2023-04-29T17:41:41.476Z,78.60
2023-04-29T17:43:47.303Z,77.60
2023-04-29T17:45:55.129Z,77.50
2023-04-29T17:48:00.299Z,78.90
2023-04-29T17:50:05.682Z,78.40
2023-04-29T17:52:11.120Z,78.70
2023-04-29T17:54:16.507Z,78.00
2023-04-29T17:56:23.433Z,78.80
2023-04-29T17:58:30.043Z,78.50
2023-04-29T18:00:35.181Z,77.40
2023-04-29T18:02:42.813Z,77.00
2023-04-29T18:04:48.389Z,77.30
2023-04-29T18:06:53.507Z,77.90
2023-04-29T18:08:58.565Z,78.00
2023-04-29T18:11:03.588Z,78.60
2023-04-29T18:13:08.628Z,79.40
2023-04-29T18:15:16.684Z,78.60
2023-04-29T18:17:21.876Z,79.00
2023-04-29T18:19:29.634Z,79.30
2023-04-29T18:21:34.738Z,80.30
2023-04-29T18:23:40.850Z,79.80
2023-04-29T18:25:46.301Z,79.90
2023-04-29T18:27:52.736Z,80.00
2023-04-29T18:30:02.218Z,80.70
2023-04-29T18:32:08.456Z,80.90
2023-04-29T18:34:13.536Z,81.00
2023-04-29T18:36:21.453Z,81.10
2023-04-29T18:38:27.824Z,82.40
2023-04-29T18:40:32.876Z,82.30
2023-04-29T18:42:38.036Z,81.90
2023-04-29T18:44:43.036Z,81.30
2023-04-29T18:46:48.056Z,81.60
2023-04-29T18:48:53.062Z,81.00
2023-04-29T18:51:03.989Z,80.50
2023-04-29T18:53:11.918Z,79.90
2023-04-29T18:55:16.935Z,80.20
2023-04-29T18:57:22.076Z,80.70
2023-04-29T18:59:27.105Z,80.20
2023-04-29T19:01:32.322Z,79.50
2023-04-29T19:03:37.352Z,79.80
2023-04-29T19:05:42.937Z,79.90
2023-04-29T19:07:48.238Z,79.70
2023-04-29T19:09:56.176Z,79.60
2023-04-29T19:12:03.777Z,79.50
2023-04-29T19:14:08.818Z,80.00
2023-04-29T19:16:14.352Z,80.80
2023-04-29T19:18:21.482Z,80.50
2023-04-29T19:20:27.177Z,80.70
2023-04-29T19:22:32.406Z,80.00
2023-04-29T19:24:39.023Z,80.80
2023-04-29T19:26:47.004Z,79.80
2023-04-29T19:28:52.708Z,82.00
2023-04-29T19:30:58.460Z,81.60
2023-04-29T19:33:04.442Z,81.80
2023-04-29T19:35:11.996Z,82.20
2023-04-29T19:37:18.248Z,82.30
2023-04-29T19:39:23.407Z,81.20
2023-04-29T19:41:28.933Z,81.70
2023-04-29T19:43:36.519Z,80.80
2023-04-29T19:45:41.666Z,81.70
2023-04-29T19:47:48.666Z,81.50
2023-04-29T19:49:54.618Z,82.20
2023-04-29T19:52:00.126Z,81.50
2023-04-29T19:54:05.142Z,82.00
2023-04-29T19:56:10.238Z,82.00
2023-04-29T19:58:15.397Z,81.40
2023-04-29T20:00:23.432Z,81.70
2023-04-29T20:02:28.869Z,82.40
2023-04-29T20:04:34.964Z,82.70
2023-04-29T20:06:40.364Z,83.80
2023-04-29T20:08:45.692Z,83.30
2023-04-29T20:10:51.094Z,83.30
2023-04-29T20:12:56.436Z,83.40
2023-04-29T20:15:01.771Z,84.10
2023-04-29T20:17:09.682Z,85.10
2023-04-29T20:19:14.743Z,82.70
2023-04-29T20:21:20.033Z,84.30
2023-04-29T20:23:25.092Z,84.20
2023-04-29T20:25:30.553Z,83.60
2023-04-29T20:27:35.873Z,84.00
2023-04-29T20:29:41.491Z,83.50
2023-04-29T20:31:46.903Z,84.30
2023-04-29T20:33:54.486Z,84.00
2023-04-29T20:36:05.645Z,84.80
2023-04-29T20:38:11.012Z,84.70
2023-04-29T20:40:16.831Z,84.90
2023-04-29T20:42:22.609Z,85.40
2023-04-29T20:44:27.941Z,85.20
2023-04-29T20:46:33.067Z,85.40
2023-04-29T20:48:38.682Z,85.50
2023-04-29T20:50:46.604Z,85.50
2023-04-29T20:52:52.862Z,84.70
2023-04-29T20:54:58.883Z,84.90
2023-04-29T20:57:05.817Z,85.10
2023-04-29T20:59:11.183Z,85.20
2023-04-29T21:01:16.516Z,85.30
2023-04-29T21:03:22.749Z,85.70
2023-04-29T21:05:27.856Z,85.80
2023-04-29T21:07:35.737Z,85.50
2023-04-29T21:09:41.016Z,85.40
2023-04-29T21:11:46.231Z,86.60
2023-04-29T21:13:52.493Z,86.60
2023-04-29T21:15:57.572Z,86.70
2023-04-29T21:18:02.870Z,86.40
2023-04-29T21:20:10.834Z,86.80
2023-04-29T21:22:15.841Z,86.30
2023-04-29T21:24:23.655Z,87.40
2023-04-29T21:26:29.123Z,87.30
2023-04-29T21:28:34.479Z,86.70
2023-04-29T21:30:39.553Z,87.20
2023-04-29T21:32:44.899Z,87.70
2023-04-29T21:34:50.041Z,87.60
2023-04-29T21:36:55.076Z,88.10
2023-04-29T21:39:00.148Z,87.60
2023-04-29T21:41:10.098Z,87.60
2023-04-29T21:43:15.638Z,87.60
2023-04-29T21:45:20.931Z,88.10
2023-04-29T21:47:26.351Z,87.90
2023-04-29T21:49:31.967Z,87.50
2023-04-29T21:51:37.812Z,88.20
2023-04-29T21:53:42.918Z,88.30
2023-04-29T21:55:48.048Z,88.30
2023-04-29T21:57:55.887Z,88.90
2023-04-29T22:00:00.949Z,88.60
2023-04-29T22:02:14.764Z,88.50
2023-04-29T22:04:19.902Z,88.40
2023-04-29T22:06:25.227Z,88.80
2023-04-29T22:08:30.658Z,88.50
2023-04-29T22:10:35.774Z,88.60
2023-04-29T22:12:40.801Z,89.10
2023-04-29T22:14:48.700Z,88.50
2023-04-29T22:16:53.744Z,88.80
2023-04-29T22:18:58.852Z,88.90
2023-04-29T22:21:04.073Z,88.70
2023-04-29T22:23:09.075Z,89.00
2023-04-29T22:25:14.067Z,89.30
2023-04-29T22:27:19.217Z,89.80
2023-04-29T22:29:24.969Z,89.50
2023-04-29T22:31:32.599Z,90.30
2023-04-29T22:33:38.898Z,90.70
2023-04-29T22:35:43.928Z,90.30
2023-04-29T22:37:49.179Z,90.40
2023-04-29T22:39:54.532Z,90.90
2023-04-29T22:41:59.864Z,90.80
2023-04-29T22:44:05.288Z,90.20
2023-04-29T22:46:10.383Z,90.60
2023-04-29T22:48:18.520Z,91.20
2023-04-29T22:50:23.792Z,90.80
2023-04-29T22:52:29.084Z,90.60
2023-04-29T22:54:34.247Z,91.10
2023-04-29T22:56:39.281Z,91.60
2023-04-29T22:58:44.554Z,91.50
2023-04-29T23:00:53.054Z,91.90
2023-04-29T23:02:58.080Z,92.20
2023-04-29T23:05:06.911Z,91.90
2023-04-29T23:07:11.995Z,92.20
2023-04-29T23:09:17.569Z,92.30
2023-04-29T23:11:22.857Z,92.70
2023-04-29T23:13:27.884Z,92.40
2023-04-29T23:15:33.628Z,92.60
2023-04-29T23:17:39.959Z,92.30
2023-04-29T23:19:46.448Z,92.10
2023-04-29T23:21:54.065Z,92.70
2023-04-29T23:23:59.070Z,93.10
2023-04-29T23:26:04.203Z,93.80
2023-04-29T23:28:09.448Z,93.70
2023-04-29T23:30:15.185Z,93.80
2023-04-29T23:32:20.836Z,93.80
2023-04-29T23:34:26.566Z,93.40
2023-04-29T23:36:31.572Z,93.60
2023-04-29T23:38:39.149Z,93.60
2023-04-29T23:40:44.400Z,93.50
2023-04-29T23:42:49.423Z,93.10
2023-04-29T23:44:54.694Z,93.20
2023-04-29T23:46:59.709Z,93.30
2023-04-29T23:49:04.717Z,93.40
2023-04-29T23:51:09.995Z,93.40
2023-04-29T23:53:15.933Z,93.10
2023-04-29T23:55:23.922Z,93.70
2023-04-29T23:57:28.952Z,93.80
2023-04-29T23:59:33.952Z,93.80
